sensor_id;sensor_type;location;lat;lon;timestamp;pressure;altitude;pressure_sealevel;temperature;humidity
75447;BME280;64024;55.820;37.574;2023-07-13T00:01:47;97916.22;;;22.96;45.17
75447;BME280;64024;55.820;37.574;2023-07-13T00:04:17;97915.28;;;22.92;45.39
75447;BME280;64024;55.820;37.574;2023-07-13T00:06:44;97923.22;;;22.89;45.23
75447;BME280;64024;55.820;37.574;2023-07-13T00:09:12;97917.66;;;22.85;45.06
75447;BME280;64024;55.820;37.574;2023-07-13T00:11:39;97920.22;;;22.81;44.71
75447;BME280;64024;55.820;37.574;2023-07-13T00:14:06;97923.56;;;22.78;44.91
75447;BME280;64024;55.820;37.574;2023-07-13T00:16:34;97919.09;;;22.74;44.45
75447;BME280;64024;55.820;37.574;2023-07-13T00:19:00;97920.53;;;22.71;44.47
75447;BME280;64024;55.820;37.574;2023-07-13T00:21:27;97917.19;;;22.66;44.49
75447;BME280;64024;55.820;37.574;2023-07-13T00:23:53;97916.69;;;22.64;44.38
75447;BME280;64024;55.820;37.574;2023-07-13T00:26:19;97909.53;;;22.59;44.35
75447;BME280;64024;55.820;37.574;2023-07-13T00:28:46;97907.47;;;22.56;44.36
75447;BME280;64024;55.820;37.574;2023-07-13T00:31:13;97904.63;;;22.52;44.48
75447;BME280;64024;55.820;37.574;2023-07-13T00:33:40;97908.75;;;22.50;44.58
75447;BME280;64024;55.820;37.574;2023-07-13T00:36:08;97905.88;;;22.46;44.64
75447;BME280;64024;55.820;37.574;2023-07-13T00:38:34;97906.03;;;22.50;44.54
75447;BME280;64024;55.820;37.574;2023-07-13T00:41:00;97906.50;;;22.43;44.27
75447;BME280;64024;55.820;37.574;2023-07-13T00:43:27;97909.69;;;22.37;44.59
75447;BME280;64024;55.820;37.574;2023-07-13T00:46:17;97906.84;;;22.33;44.46
75447;BME280;64024;55.820;37.574;2023-07-13T00:48:45;97909.69;;;22.28;44.67
75447;BME280;64024;55.820;37.574;2023-07-13T00:51:13;97910.66;;;22.23;44.55
75447;BME280;64024;55.820;37.574;2023-07-13T00:53:41;97913.97;;;22.20;44.61
75447;BME280;64024;55.820;37.574;2023-07-13T00:56:08;97906.81;;;22.16;44.82
75447;BME280;64024;55.820;37.574;2023-07-13T00:58:34;97912.22;;;22.16;44.74
75447;BME280;64024;55.820;37.574;2023-07-13T01:01:01;97909.03;;;22.14;44.96
75447;BME280;64024;55.820;37.574;2023-07-13T01:03:27;97906.94;;;22.11;44.78
75447;BME280;64024;55.820;37.574;2023-07-13T01:05:54;97905.66;;;22.08;44.78
75447;BME280;64024;55.820;37.574;2023-07-13T01:08:21;97903.28;;;22.06;44.84
75447;BME280;64024;55.820;37.574;2023-07-13T01:10:55;97907.06;;;22.05;45.01
75447;BME280;64024;55.820;37.574;2023-07-13T01:13:21;97901.19;;;22.03;45.00
75447;BME280;64024;55.820;37.574;2023-07-13T01:15:50;97908.81;;;22.01;44.98
75447;BME280;64024;55.820;37.574;2023-07-13T01:18:23;97901.81;;;22.00;45.32
75447;BME280;64024;55.820;37.574;2023-07-13T01:20:56;97906.44;;;22.00;45.10
75447;BME280;64024;55.820;37.574;2023-07-13T01:23:24;97908.34;;;21.99;45.01
75447;BME280;64024;55.820;37.574;2023-07-13T01:25:51;97905.66;;;21.99;45.10
75447;BME280;64024;55.820;37.574;2023-07-13T01:28:17;97904.88;;;22.07;45.08
75447;BME280;64024;55.820;37.574;2023-07-13T01:30:44;97901.19;;;22.03;45.26
75447;BME280;64024;55.820;37.574;2023-07-13T01:33:15;97896.41;;;22.00;45.49
75447;BME280;64024;55.820;37.574;2023-07-13T01:35:43;97891.31;;;21.99;45.24
75447;BME280;64024;55.820;37.574;2023-07-13T01:38:09;97897.53;;;21.99;45.32
75447;BME280;64024;55.820;37.574;2023-07-13T01:40:36;97886.22;;;21.97;45.53
75447;BME280;64024;55.820;37.574;2023-07-13T01:43:03;97891.94;;;21.96;45.64
75447;BME280;64024;55.820;37.574;2023-07-13T01:45:29;97891.16;;;21.95;45.56
75447;BME280;64024;55.820;37.574;2023-07-13T01:47:55;97889.25;;;21.96;45.54
75447;BME280;64024;55.820;37.574;2023-07-13T01:50:22;97890.03;;;21.96;45.57
75447;BME280;64024;55.820;37.574;2023-07-13T01:52:47;97891.16;;;21.95;45.70
75447;BME280;64024;55.820;37.574;2023-07-13T01:55:14;97892.75;;;21.96;45.62
75447;BME280;64024;55.820;37.574;2023-07-13T01:57:39;97893.84;;;21.95;45.52
75447;BME280;64024;55.820;37.574;2023-07-13T02:00:08;97889.25;;;21.96;45.50
75447;BME280;64024;55.820;37.574;2023-07-13T02:02:35;97883.84;;;21.96;45.50
75447;BME280;64024;55.820;37.574;2023-07-13T02:05:00;97876.84;;;21.95;45.60
75447;BME280;64024;55.820;37.574;2023-07-13T02:07:26;97876.84;;;21.95;45.45
75447;BME280;64024;55.820;37.574;2023-07-13T02:09:53;97877.94;;;21.94;45.61
75447;BME280;64024;55.820;37.574;2023-07-13T02:12:19;97876.84;;;21.95;45.68
75447;BME280;64024;55.820;37.574;2023-07-13T02:14:45;97872.50;;;21.94;45.71
75447;BME280;64024;55.820;37.574;2023-07-13T02:17:11;97867.09;;;21.94;45.41
75447;BME280;64024;55.820;37.574;2023-07-13T02:19:37;97865.53;;;21.93;45.50
75447;BME280;64024;55.820;37.574;2023-07-13T02:22:04;97864.72;;;21.92;45.65
75447;BME280;64024;55.820;37.574;2023-07-13T02:24:30;97868.22;;;21.93;45.63
75447;BME280;64024;55.820;37.574;2023-07-13T02:26:56;97870.94;;;21.93;45.67
75447;BME280;64024;55.820;37.574;2023-07-13T02:29:22;97870.13;;;21.92;45.64
75447;BME280;64024;55.820;37.574;2023-07-13T02:31:48;97864.72;;;21.92;45.66
75447;BME280;64024;55.820;37.574;2023-07-13T02:34:14;97867.44;;;21.92;45.59
75447;BME280;64024;55.820;37.574;2023-07-13T02:36:40;97860.91;;;21.93;45.75
75447;BME280;64024;55.820;37.574;2023-07-13T02:39:11;97862.81;;;21.93;45.62
75447;BME280;64024;55.820;37.574;2023-07-13T02:41:38;97862.81;;;21.93;45.74
75447;BME280;64024;55.820;37.574;2023-07-13T02:44:04;97859.31;;;21.92;45.72
75447;BME280;64024;55.820;37.574;2023-07-13T02:46:35;97859.31;;;21.92;45.95
75447;BME280;64024;55.820;37.574;2023-07-13T02:49:01;97860.91;;;21.93;45.92
75447;BME280;64024;55.820;37.574;2023-07-13T02:51:29;97870.13;;;21.92;45.92
75447;BME280;64024;55.820;37.574;2023-07-13T02:53:55;97870.13;;;21.92;45.99
75447;BME280;64024;55.820;37.574;2023-07-13T02:56:25;97862.81;;;21.93;46.26
75447;BME280;64024;55.820;37.574;2023-07-13T02:58:51;97855.81;;;21.92;46.25
75447;BME280;64024;55.820;37.574;2023-07-13T03:01:17;97860.09;;;21.93;46.43
75447;BME280;64024;55.820;37.574;2023-07-13T03:03:45;97855.50;;;21.93;46.63
75447;BME280;64024;55.820;37.574;2023-07-13T03:06:12;97853.56;;;21.94;46.89
75447;BME280;64024;55.820;37.574;2023-07-13T03:08:39;97838.97;;;21.95;47.12
75447;BME280;64024;55.820;37.574;2023-07-13T03:11:13;97839.75;;;21.95;47.29
75447;BME280;64024;55.820;37.574;2023-07-13T03:13:41;97844.03;;;21.96;47.27
75447;BME280;64024;55.820;37.574;2023-07-13T03:16:07;97847.56;;;22.05;47.25
75447;BME280;64024;55.820;37.574;2023-07-13T03:18:35;97848.22;;;22.02;47.11
75447;BME280;64024;55.820;37.574;2023-07-13T03:21:00;97859.31;;;22.01;47.20
75447;BME280;64024;55.820;37.574;2023-07-13T03:23:27;97854.25;;;21.99;47.13
75447;BME280;64024;55.820;37.574;2023-07-13T03:26:05;97858.53;;;22.00;47.27
75447;BME280;64024;55.820;37.574;2023-07-13T03:28:32;97853.13;;;22.00;47.15
75447;BME280;64024;55.820;37.574;2023-07-13T03:31:07;97856.63;;;22.01;47.18
75447;BME280;64024;55.820;37.574;2023-07-13T03:33:34;97862.81;;;22.01;47.15
75447;BME280;64024;55.820;37.574;2023-07-13T03:36:00;97857.13;;;22.03;47.07
75447;BME280;64024;55.820;37.574;2023-07-13T03:38:27;97852.50;;;22.03;47.18
75447;BME280;64024;55.820;37.574;2023-07-13T03:40:53;97848.66;;;22.04;47.04
75447;BME280;64024;55.820;37.574;2023-07-13T03:43:18;97852.16;;;22.05;46.90
75447;BME280;64024;55.820;37.574;2023-07-13T03:45:46;97857.28;;;22.06;46.99
75447;BME280;64024;55.820;37.574;2023-07-13T03:48:12;97852.66;;;22.07;47.01
75447;BME280;64024;55.820;37.574;2023-07-13T03:50:39;97858.53;;;22.09;46.75
75447;BME280;64024;55.820;37.574;2023-07-13T03:53:05;97860.94;;;22.11;46.78
75447;BME280;64024;55.820;37.574;2023-07-13T03:55:31;97856.03;;;22.13;46.83
75447;BME280;64024;55.820;37.574;2023-07-13T03:58:00;97855.69;;;22.14;46.84
75447;BME280;64024;55.820;37.574;2023-07-13T04:00:26;97853.81;;;22.15;46.74
75447;BME280;64024;55.820;37.574;2023-07-13T04:02:53;97854.59;;;22.15;46.54
75447;BME280;64024;55.820;37.574;2023-07-13T04:05:19;97851.56;;;22.17;46.75
75447;BME280;64024;55.820;37.574;2023-07-13T04:07:45;97862.91;;;22.19;46.52
75447;BME280;64024;55.820;37.574;2023-07-13T04:10:11;97861.78;;;22.20;46.72
75447;BME280;64024;55.820;37.574;2023-07-13T04:12:37;97867.19;;;22.20;46.50
75447;BME280;64024;55.820;37.574;2023-07-13T04:15:03;97868.78;;;22.21;46.57
75447;BME280;64024;55.820;37.574;2023-07-13T04:17:30;97866.84;;;22.21;46.39
75447;BME280;64024;55.820;37.574;2023-07-13T04:19:56;97868.44;;;22.22;46.46
75447;BME280;64024;55.820;37.574;2023-07-13T04:22:22;97871.16;;;22.22;46.33
75447;BME280;64024;55.820;37.574;2023-07-13T04:24:48;97871.16;;;22.22;46.17
75447;BME280;64024;55.820;37.574;2023-07-13T04:27:14;97865.75;;;22.22;46.31
75447;BME280;64024;55.820;37.574;2023-07-13T04:29:40;97867.34;;;22.23;46.33
75447;BME280;64024;55.820;37.574;2023-07-13T04:32:07;97870.34;;;22.22;46.00
75447;BME280;64024;55.820;37.574;2023-07-13T04:34:33;97861.13;;;22.23;46.10
75447;BME280;64024;55.820;37.574;2023-07-13T04:37:00;97872.75;;;22.23;46.34
75447;BME280;64024;55.820;37.574;2023-07-13T04:39:26;97871.94;;;22.23;46.15
75447;BME280;64024;55.820;37.574;2023-07-13T04:41:52;97869.22;;;22.23;46.22
75447;BME280;64024;55.820;37.574;2023-07-13T04:44:18;97868.44;;;22.22;46.57
75447;BME280;64024;55.820;37.574;2023-07-13T04:46:44;97861.94;;;22.23;46.43
75447;BME280;64024;55.820;37.574;2023-07-13T04:49:10;97862.41;;;22.25;46.52
75447;BME280;64024;55.820;37.574;2023-07-13T04:51:36;97860.81;;;22.24;46.52
75447;BME280;64024;55.820;37.574;2023-07-13T04:54:02;97856.19;;;22.25;46.46
75447;BME280;64024;55.820;37.574;2023-07-13T04:56:30;97866.69;;;22.26;46.85
75447;BME280;64024;55.820;37.574;2023-07-13T04:58:56;97862.06;;;22.27;46.46
75447;BME280;64024;55.820;37.574;2023-07-13T05:01:24;97860.19;;;22.27;46.69
75447;BME280;64024;55.820;37.574;2023-07-13T05:03:50;97874.50;;;22.28;46.41
75447;BME280;64024;55.820;37.574;2023-07-13T05:06:16;97871.47;;;22.29;46.51
75447;BME280;64024;55.820;37.574;2023-07-13T05:08:42;97873.84;;;22.31;46.35
75447;BME280;64024;55.820;37.574;2023-07-13T05:11:08;97883.59;;;22.32;46.60
75447;BME280;64024;55.820;37.574;2023-07-13T05:13:34;97882.47;;;22.33;46.43
75447;BME280;64024;55.820;37.574;2023-07-13T05:16:04;97879.44;;;22.34;46.40
75447;BME280;64024;55.820;37.574;2023-07-13T05:18:31;97878.00;;;22.37;46.49
75447;BME280;64024;55.820;37.574;2023-07-13T05:20:59;97881.19;;;22.39;46.67
75447;BME280;64024;55.820;37.574;2023-07-13T05:23:25;97881.03;;;22.44;46.80
75447;BME280;64024;55.820;37.574;2023-07-13T05:25:51;97887.09;;;22.50;46.62
75447;BME280;64024;55.820;37.574;2023-07-13T05:28:17;97874.66;;;22.57;46.37
75447;BME280;64024;55.820;37.574;2023-07-13T05:30:48;97883.09;;;22.65;46.20
75447;BME280;64024;55.820;37.574;2023-07-13T05:33:14;97875.94;;;22.69;46.25
75447;BME280;64024;55.820;37.574;2023-07-13T05:35:40;97869.06;;;22.71;46.29
75447;BME280;64024;55.820;37.574;2023-07-13T05:38:05;97864.13;;;22.73;46.04
75447;BME280;64024;55.820;37.574;2023-07-13T05:40:32;97868.09;;;22.76;46.09
75447;BME280;64024;55.820;37.574;2023-07-13T05:42:58;97868.59;;;22.78;46.07
75447;BME280;64024;55.820;37.574;2023-07-13T05:45:24;97871.28;;;22.78;45.80
75447;BME280;64024;55.820;37.574;2023-07-13T05:47:51;97873.66;;;22.88;45.73
75447;BME280;64024;55.820;37.574;2023-07-13T05:50:17;97864.72;;;22.88;45.89
75447;BME280;64024;55.820;37.574;2023-07-13T05:52:44;97870.50;;;22.86;45.99
75447;BME280;64024;55.820;37.574;2023-07-13T05:55:10;97874.31;;;22.85;45.92
75447;BME280;64024;55.820;37.574;2023-07-13T05:57:37;97868.56;;;22.87;45.50
75447;BME280;64024;55.820;37.574;2023-07-13T06:00:03;97865.53;;;22.88;45.47
75447;BME280;64024;55.820;37.574;2023-07-13T06:02:29;97863.34;;;22.90;45.72
75447;BME280;64024;55.820;37.574;2023-07-13T06:04:56;97860.28;;;22.92;45.78
75447;BME280;64024;55.820;37.574;2023-07-13T06:07:21;97857.75;;;22.95;45.42
75447;BME280;64024;55.820;37.574;2023-07-13T06:09:47;97854.41;;;22.98;45.50
75447;BME280;64024;55.820;37.574;2023-07-13T06:12:13;97845.13;;;22.99;45.38
75447;BME280;64024;55.820;37.574;2023-07-13T06:14:39;97853.72;;;23.01;45.68
75447;BME280;64024;55.820;37.574;2023-07-13T06:17:05;97846.88;;;23.04;45.09
75447;BME280;64024;55.820;37.574;2023-07-13T06:19:31;97841.13;;;23.05;45.25
75447;BME280;64024;55.820;37.574;2023-07-13T06:21:57;97837.78;;;23.08;45.08
75447;BME280;64024;55.820;37.574;2023-07-13T06:24:24;97841.75;;;23.11;45.49
75447;BME280;64024;55.820;37.574;2023-07-13T06:26:50;97839.19;;;23.15;45.05
75447;BME280;64024;55.820;37.574;2023-07-13T06:29:17;97833.94;;;23.18;45.39
75447;BME280;64024;55.820;37.574;2023-07-13T06:31:46;97834.84;;;23.22;45.65
75447;BME280;64024;55.820;37.574;2023-07-13T06:34:15;97824.16;;;23.26;45.42
75447;BME280;64024;55.820;37.574;2023-07-13T06:36:40;97832.44;;;23.29;45.36
75447;BME280;64024;55.820;37.574;2023-07-13T06:39:07;97834.16;;;23.34;45.28
75447;BME280;64024;55.820;37.574;2023-07-13T06:41:33;97834.00;;;23.39;45.43
75447;BME280;64024;55.820;37.574;2023-07-13T06:43:59;97831.09;;;23.44;44.84
75447;BME280;64024;55.820;37.574;2023-07-13T06:46:25;97840.47;;;23.47;44.56
75447;BME280;64024;55.820;37.574;2023-07-13T06:48:51;97843.66;;;23.49;44.30
75447;BME280;64024;55.820;37.574;2023-07-13T06:51:17;97842.22;;;23.51;44.10
75447;BME280;64024;55.820;37.574;2023-07-13T06:53:43;97839.53;;;23.51;44.02
75447;BME280;64024;55.820;37.574;2023-07-13T06:56:10;97835.69;;;23.52;44.12
75447;BME280;64024;55.820;37.574;2023-07-13T06:58:37;97838.38;;;23.52;44.01
75447;BME280;64024;55.820;37.574;2023-07-13T07:01:04;97828.00;;;23.54;43.68
75447;BME280;64024;55.820;37.574;2023-07-13T07:03:31;97831.50;;;23.55;43.53
75447;BME280;64024;55.820;37.574;2023-07-13T07:06:01;97836.59;;;23.65;43.71
75447;BME280;64024;55.820;37.574;2023-07-13T07:08:28;97829.88;;;23.63;43.63
75447;BME280;64024;55.820;37.574;2023-07-13T07:10:54;97833.72;;;23.62;43.54
75447;BME280;64024;55.820;37.574;2023-07-13T07:13:20;97839.94;;;23.62;43.79
75447;BME280;64024;55.820;37.574;2023-07-13T07:15:46;97836.88;;;23.64;43.89
75447;BME280;64024;55.820;37.574;2023-07-13T07:18:13;97833.88;;;23.65;43.58
75447;BME280;64024;55.820;37.574;2023-07-13T07:20:38;97826.19;;;23.67;43.50
75447;BME280;64024;55.820;37.574;2023-07-13T07:23:05;97833.69;;;23.70;43.83
75447;BME280;64024;55.820;37.574;2023-07-13T07:25:31;97842.31;;;23.72;43.49
75447;BME280;64024;55.820;37.574;2023-07-13T07:27:58;97848.66;;;23.76;43.86
75447;BME280;64024;55.820;37.574;2023-07-13T07:30:25;97852.97;;;23.77;43.70
75447;BME280;64024;55.820;37.574;2023-07-13T07:32:51;97861.56;;;23.79;43.62
75447;BME280;64024;55.820;37.574;2023-07-13T07:35:17;97860.09;;;23.82;43.38
75447;BME280;64024;55.820;37.574;2023-07-13T07:37:43;97858.19;;;23.83;43.40
75447;BME280;64024;55.820;37.574;2023-07-13T07:40:10;97867.13;;;23.83;43.10
75447;BME280;64024;55.820;37.574;2023-07-13T07:42:35;97876.84;;;23.84;43.24
75447;BME280;64024;55.820;37.574;2023-07-13T07:45:01;97873.03;;;23.85;42.79
75447;BME280;64024;55.820;37.574;2023-07-13T07:47:27;97871.09;;;23.86;42.77
75447;BME280;64024;55.820;37.574;2023-07-13T07:49:53;97864.53;;;23.87;43.08
75447;BME280;64024;55.820;37.574;2023-07-13T07:52:20;97872.69;;;23.87;42.95
75447;BME280;64024;55.820;37.574;2023-07-13T07:54:46;97866.13;;;23.88;42.99
75447;BME280;64024;55.820;37.574;2023-07-13T07:57:11;97872.34;;;23.88;43.10
75447;BME280;64024;55.820;37.574;2023-07-13T07:59:38;97871.25;;;23.89;42.91
75447;BME280;64024;55.820;37.574;2023-07-13T08:02:04;97867.41;;;23.90;42.95
75447;BME280;64024;55.820;37.574;2023-07-13T08:04:30;97861.19;;;23.90;42.86
75447;BME280;64024;55.820;37.574;2023-07-13T08:06:56;97852.69;;;23.91;42.95
75447;BME280;64024;55.820;37.574;2023-07-13T08:09:23;97860.50;;;23.93;43.36
75447;BME280;64024;55.820;37.574;2023-07-13T08:11:49;97862.13;;;23.94;42.85
75447;BME280;64024;55.820;37.574;2023-07-13T08:14:17;97859.84;;;23.96;43.04
75447;BME280;64024;55.820;37.574;2023-07-13T08:16:43;97857.94;;;23.96;42.98
75447;BME280;64024;55.820;37.574;2023-07-13T08:19:09;97855.22;;;23.96;42.96
75447;BME280;64024;55.820;37.574;2023-07-13T08:21:37;97834.63;;;23.95;43.05
75447;BME280;64024;55.820;37.574;2023-07-13T08:24:04;97864.03;;;23.93;42.87
75447;BME280;64024;55.820;37.574;2023-07-13T08:26:30;97862.75;;;23.91;42.63
75447;BME280;64024;55.820;37.574;2023-07-13T08:28:57;97859.13;;;23.87;42.45
75447;BME280;64024;55.820;37.574;2023-07-13T08:31:23;97858.97;;;23.83;42.39
75447;BME280;64024;55.820;37.574;2023-07-13T08:33:49;97860.09;;;23.82;42.48
75447;BME280;64024;55.820;37.574;2023-07-13T08:36:15;97861.88;;;23.78;42.70
75447;BME280;64024;55.820;37.574;2023-07-13T08:38:41;97864.13;;;23.76;42.98
75447;BME280;64024;55.820;37.574;2023-07-13T08:41:17;97860.31;;;23.77;42.91
75447;BME280;64024;55.820;37.574;2023-07-13T08:43:50;97862.53;;;23.75;43.02
75447;BME280;64024;55.820;37.574;2023-07-13T08:46:35;97855.19;;;23.75;42.87
75447;BME280;64024;55.820;37.574;2023-07-13T08:49:22;97871.81;;;23.74;42.65
75447;BME280;64024;55.820;37.574;2023-07-13T08:52:02;97858.09;;;23.70;43.06
75447;BME280;64024;55.820;37.574;2023-07-13T08:54:31;97868.81;;;23.67;43.03
75447;BME280;64024;55.820;37.574;2023-07-13T08:57:05;97875.66;;;23.64;43.00
75447;BME280;64024;55.820;37.574;2023-07-13T08:59:36;97867.03;;;23.62;42.99
75447;BME280;64024;55.820;37.574;2023-07-13T09:02:28;97879.34;;;23.60;43.13
75447;BME280;64024;55.820;37.574;2023-07-13T09:05:10;97886.22;;;23.57;43.21
75447;BME280;64024;55.820;37.574;2023-07-13T09:10:29;97884.34;;;23.49;43.16
75447;BME280;64024;55.820;37.574;2023-07-13T09:15:35;97903.78;;;23.51;43.40
75447;BME280;64024;55.820;37.574;2023-07-13T09:20:48;97897.06;;;23.57;43.47
75447;BME280;64024;55.820;37.574;2023-07-13T09:23:17;97897.88;;;23.57;43.64
75447;BME280;64024;55.820;37.574;2023-07-13T09:25:51;97900.25;;;23.59;43.61
75447;BME280;64024;55.820;37.574;2023-07-13T09:28:27;97901.50;;;23.62;43.50
75447;BME280;64024;55.820;37.574;2023-07-13T09:33:45;97897.06;;;23.66;43.59
75447;BME280;64024;55.820;37.574;2023-07-13T09:36:29;97905.34;;;23.69;43.36
75447;BME280;64024;55.820;37.574;2023-07-13T09:39:26;97897.66;;;23.71;43.73
75447;BME280;64024;55.820;37.574;2023-07-13T09:42:07;97899.72;;;23.74;43.75
75447;BME280;64024;55.820;37.574;2023-07-13T09:45:01;97898.28;;;23.77;43.78
75447;BME280;64024;55.820;37.574;2023-07-13T09:47:28;97897.16;;;23.78;43.51
75447;BME280;64024;55.820;37.574;2023-07-13T09:50:01;97884.88;;;23.80;43.86
75447;BME280;64024;55.820;37.574;2023-07-13T09:52:39;97889.91;;;23.91;43.69
75447;BME280;64024;55.820;37.574;2023-07-13T09:55:35;97888.78;;;23.92;43.99
75447;BME280;64024;55.820;37.574;2023-07-13T09:58:19;97882.56;;;23.91;43.80
75447;BME280;64024;55.820;37.574;2023-07-13T10:01:02;97888.47;;;23.93;43.92
75447;BME280;64024;55.820;37.574;2023-07-13T10:03:33;97887.63;;;23.93;44.03
75447;BME280;64024;55.820;37.574;2023-07-13T10:06:18;97887.78;;;23.96;43.69
75447;BME280;64024;55.820;37.574;2023-07-13T10:08:45;97886.69;;;23.97;44.02
75447;BME280;64024;55.820;37.574;2023-07-13T10:11:27;97883.28;;;24.00;44.52
75447;BME280;64024;55.820;37.574;2023-07-13T10:14:14;97891.56;;;24.04;44.38
75447;BME280;64024;55.820;37.574;2023-07-13T10:16:43;97888.66;;;24.09;44.56
75447;BME280;64024;55.820;37.574;2023-07-13T10:19:12;97888.47;;;24.14;44.43
75447;BME280;64024;55.820;37.574;2023-07-13T10:21:56;97891.78;;;24.20;44.44
75447;BME280;64024;55.820;37.574;2023-07-13T10:24:33;97883.31;;;24.21;44.62
75447;BME280;64024;55.820;37.574;2023-07-13T10:27:05;97884.78;;;24.19;44.41
75447;BME280;64024;55.820;37.574;2023-07-13T10:29:41;97886.56;;;24.15;44.36
75447;BME280;64024;55.820;37.574;2023-07-13T10:32:11;97884.06;;;24.10;44.48
75447;BME280;64024;55.820;37.574;2023-07-13T10:34:40;97881.19;;;24.06;44.54
75447;BME280;64024;55.820;37.574;2023-07-13T10:37:23;97882.97;;;24.02;44.31
75447;BME280;64024;55.820;37.574;2023-07-13T10:39:55;97891.63;;;23.95;44.50
75447;BME280;64024;55.820;37.574;2023-07-13T10:42:40;97882.88;;;23.90;44.41
75447;BME280;64024;55.820;37.574;2023-07-13T10:45:18;97881.97;;;23.86;44.17
75447;BME280;64024;55.820;37.574;2023-07-13T10:47:45;97895.72;;;23.80;44.06
75447;BME280;64024;55.820;37.574;2023-07-13T10:50:19;97899.28;;;23.72;43.97
75447;BME280;64024;55.820;37.574;2023-07-13T10:52:49;97893.22;;;23.67;44.39
75447;BME280;64024;55.820;37.574;2023-07-13T11:03:34;97904.41;;;23.56;44.84
75447;BME280;64024;55.820;37.574;2023-07-13T11:06:08;97894.22;;;23.53;45.28
75447;BME280;64024;55.820;37.574;2023-07-13T11:08:54;97890.22;;;23.51;44.93
75447;BME280;64024;55.820;37.574;2023-07-13T11:18:50;97895.53;;;23.39;45.08
75447;BME280;64024;55.820;37.574;2023-07-13T11:21:22;97902.88;;;23.38;44.86
75447;BME280;64024;55.820;37.574;2023-07-13T11:24:21;97895.06;;;23.37;45.02
75447;BME280;64024;55.820;37.574;2023-07-13T11:31:55;97896.84;;;23.32;44.98
75447;BME280;64024;55.820;37.574;2023-07-13T11:34:35;97898.44;;;23.33;45.07
75447;BME280;64024;55.820;37.574;2023-07-13T11:37:03;97897.97;;;23.31;45.07
75447;BME280;64024;55.820;37.574;2023-07-13T11:39:34;97893.66;;;23.30;44.98
75447;BME280;64024;55.820;37.574;2023-07-13T11:42:18;97895.25;;;23.31;45.00
75447;BME280;64024;55.820;37.574;2023-07-13T11:44:49;97899.91;;;23.31;45.22
75447;BME280;64024;55.820;37.574;2023-07-13T11:47:20;97897.50;;;23.29;45.01
75447;BME280;64024;55.820;37.574;2023-07-13T11:49:53;97893.97;;;23.29;45.09
75447;BME280;64024;55.820;37.574;2023-07-13T11:52:26;97898.94;;;23.27;45.16
75447;BME280;64024;55.820;37.574;2023-07-13T11:54:56;97896.53;;;23.25;45.41
75447;BME280;64024;55.820;37.574;2023-07-13T11:57:30;97902.75;;;23.26;45.32
75447;BME280;64024;55.820;37.574;2023-07-13T12:00:20;97907.38;;;23.25;45.19
75447;BME280;64024;55.820;37.574;2023-07-13T12:02:51;97901.16;;;23.25;45.59
75447;BME280;64024;55.820;37.574;2023-07-13T12:05:19;97899.59;;;23.24;45.42
75447;BME280;64024;55.820;37.574;2023-07-13T12:07:50;97901.50;;;23.23;45.69
75447;BME280;64024;55.820;37.574;2023-07-13T12:10:23;97898.00;;;23.23;45.75
75447;BME280;64024;55.820;37.574;2023-07-13T12:12:57;97907.22;;;23.22;45.58
75447;BME280;64024;55.820;37.574;2023-07-13T12:15:40;97911.84;;;23.21;46.07
75447;BME280;64024;55.820;37.574;2023-07-13T12:18:18;97905.66;;;23.21;45.85
75447;BME280;64024;55.820;37.574;2023-07-13T12:20:47;97902.78;;;23.17;45.72
75447;BME280;64024;55.820;37.574;2023-07-13T12:23:25;97904.25;;;23.15;45.77
75447;BME280;64024;55.820;37.574;2023-07-13T12:25:56;97900.59;;;23.11;45.87
75447;BME280;64024;55.820;37.574;2023-07-13T12:28:35;97892.31;;;23.07;46.01
75447;BME280;64024;55.820;37.574;2023-07-13T12:31:05;97888.66;;;23.03;46.10
75447;BME280;64024;55.820;37.574;2023-07-13T12:33:33;97882.28;;;22.99;46.31
75447;BME280;64024;55.820;37.574;2023-07-13T12:36:05;97892.97;;;22.95;46.40
75447;BME280;64024;55.820;37.574;2023-07-13T12:38:32;97894.38;;;22.93;46.37
75447;BME280;64024;55.820;37.574;2023-07-13T12:40:59;97891.22;;;22.91;46.88
75447;BME280;64024;55.820;37.574;2023-07-13T12:43:28;97893.41;;;22.89;46.87
75447;BME280;64024;55.820;37.574;2023-07-13T12:46:01;97893.28;;;22.85;46.70
75447;BME280;64024;55.820;37.574;2023-07-13T12:48:29;97883.88;;;22.82;46.69
75447;BME280;64024;55.820;37.574;2023-07-13T12:50:55;97874.78;;;22.87;46.53
75447;BME280;64024;55.820;37.574;2023-07-13T12:53:24;97870.66;;;22.81;46.67
75447;BME280;64024;55.820;37.574;2023-07-13T12:55:56;97868.88;;;22.76;46.77
75447;BME280;64024;55.820;37.574;2023-07-13T12:58:35;97879.59;;;22.73;46.71
75447;BME280;64024;55.820;37.574;2023-07-13T13:01:04;97885.66;;;22.70;46.65
75447;BME280;64024;55.820;37.574;2023-07-13T13:03:40;97887.41;;;22.66;47.04
75447;BME280;64024;55.820;37.574;2023-07-13T13:08:46;97896.31;;;22.57;46.84
75447;BME280;64024;55.820;37.574;2023-07-13T13:11:15;97891.88;;;22.53;46.89
75447;BME280;64024;55.820;37.574;2023-07-13T13:13:43;97899.50;;;22.51;47.30
75447;BME280;64024;55.820;37.574;2023-07-13T13:16:23;97887.72;;;22.47;47.24
75447;BME280;64024;55.820;37.574;2023-07-13T13:18:53;97882.13;;;22.43;47.23
75447;BME280;64024;55.820;37.574;2023-07-13T13:21:23;97884.38;;;22.41;47.15
75447;BME280;64024;55.820;37.574;2023-07-13T13:23:49;97879.75;;;22.42;47.13
75447;BME280;64024;55.820;37.574;2023-07-13T13:26:17;97875.13;;;22.42;47.16
75447;BME280;64024;55.820;37.574;2023-07-13T13:28:45;97875.31;;;22.46;46.99
75447;BME280;64024;55.820;37.574;2023-07-13T13:31:14;97877.69;;;22.47;46.98
75447;BME280;64024;55.820;37.574;2023-07-13T13:33:42;97884.72;;;22.48;47.21
75447;BME280;64024;55.820;37.574;2023-07-13T13:36:22;97880.72;;;22.54;47.25